Time;durP1;ratioP1;P1;durP2;ratioP2;P2;SDS_P1;SDS_P2;PMS_P1;PMS_P2;Temp;Humidity;BMP_temperature;BMP_pressure;BME280_temperature;BME280_humidity;BME280_pressure;Samples;Min_cycle;Max_cycle;Signal;HPM_P1;HPM_P2
2023/08/27 00:01:51;;;;;;;6.18;2.20;;;17.40;99.90;;;;;;5016351;28;20040;-77
2023/08/27 00:04:17;;;;;;;5.55;2.47;;;17.30;99.90;;;;;;5016297;28;20028;-79
2023/08/27 00:06:43;;;;;;;4.90;2.20;;;17.10;99.90;;;;;;5013200;28;20022;-80
2023/08/27 00:09:08;;;;;;;2.17;1.80;;;17.10;99.90;;;;;;5015670;28;20041;-77
2023/08/27 00:11:34;;;;;;;3.22;2.00;;;17.10;99.90;;;;;;5020240;28;20033;-78
2023/08/27 00:14:00;;;;;;;2.38;2.08;;;17.10;99.90;;;;;;5033619;28;20034;-79
2023/08/27 00:16:26;;;;;;;5.15;1.95;;;17.20;99.90;;;;;;5033311;28;20025;-80
2023/08/27 00:18:51;;;;;;;4.32;2.08;;;17.30;99.90;;;;;;5032497;28;20487;-80
2023/08/27 00:21:17;;;;;;;3.85;1.80;;;17.40;99.90;;;;;;5032978;28;20500;-80
2023/08/27 00:23:43;;;;;;;3.03;1.77;;;17.50;99.90;;;;;;5032402;28;20051;-80
2023/08/27 00:26:08;;;;;;;2.05;1.33;;;17.50;99.90;;;;;;5031199;28;20071;-80
2023/08/27 00:28:34;;;;;;;2.53;1.45;;;17.60;99.90;;;;;;5032922;28;20025;-81
2023/08/27 00:31:03;;;;;;;2.42;1.58;;;17.60;99.90;;;;;;5032399;28;20037;-80
2023/08/27 00:33:29;;;;;;;4.63;1.60;;;17.60;99.90;;;;;;5033362;28;20664;-80
2023/08/27 00:35:55;;;;;;;5.22;1.83;;;17.60;99.90;;;;;;5032539;28;20107;-81
2023/08/27 00:38:20;;;;;;;3.33;2.08;;;17.60;99.90;;;;;;5032513;28;20467;-80
2023/08/27 00:40:46;;;;;;;5.80;2.15;;;17.60;99.90;;;;;;5032480;28;20384;-81
2023/08/27 00:43:12;;;;;;;2.53;1.83;;;17.20;99.90;;;;;;5032658;28;20112;-80
2023/08/27 00:45:38;;;;;;;4.15;1.50;;;17.20;99.90;;;;;;5032347;28;20036;-80
2023/08/27 00:48:04;;;;;;;3.40;1.98;;;17.30;99.90;;;;;;5032378;28;20021;-80
2023/08/27 00:50:31;;;;;;;2.40;1.88;;;17.40;99.90;;;;;;5032137;28;20030;-81
2023/08/27 00:52:57;;;;;;;1.77;1.50;;;17.30;99.90;;;;;;5044412;28;20355;-81
2023/08/27 00:55:23;;;;;;;3.47;2.03;;;17.10;99.90;;;;;;5049305;28;20435;-81
2023/08/27 00:57:51;;;;;;;2.58;1.85;;;17.10;99.90;;;;;;5028894;28;20055;-81
2023/08/27 01:00:18;;;;;;;5.43;2.05;;;17.10;99.90;;;;;;5012370;28;20494;-80
2023/08/27 01:02:44;;;;;;;4.93;1.92;;;17.10;99.90;;;;;;5012449;28;20021;-81
2023/08/27 01:05:13;;;;;;;3.70;1.88;;;17.10;99.90;;;;;;5012041;28;20053;-81
2023/08/27 01:08:06;;;;;;;6.95;1.98;;;17.20;99.90;;;;;;5012732;28;20025;-81
2023/08/27 01:10:51;;;;;;;2.42;1.55;;;17.30;99.90;;;;;;5011046;28;20046;-81
2023/08/27 01:13:25;;;;;;;2.47;1.42;;;17.30;99.90;;;;;;5013363;28;20515;-81
2023/08/27 01:15:58;;;;;;;1.50;1.40;;;17.30;99.90;;;;;;5012039;28;20033;-81
2023/08/27 01:18:25;;;;;;;4.65;1.80;;;17.30;99.90;;;;;;5021211;28;20093;-81
2023/08/27 01:20:50;;;;;;;3.20;1.83;;;17.20;99.90;;;;;;5029101;28;20060;-81
2023/08/27 01:23:16;;;;;;;3.85;1.67;;;17.20;99.90;;;;;;5031186;28;20064;-82
2023/08/27 01:25:47;;;;;;;2.78;1.90;;;17.20;99.90;;;;;;5031196;28;20031;-81
2023/08/27 01:28:31;;;;;;;3.08;2.10;;;17.20;99.90;;;;;;5031516;28;20479;-81
2023/08/27 01:31:09;;;;;;;3.55;1.70;;;17.20;99.90;;;;;;5029803;28;20399;-81
2023/08/27 01:33:37;;;;;;;5.30;1.73;;;17.20;99.90;;;;;;5032022;28;20053;-81
2023/08/27 01:36:04;;;;;;;2.70;1.77;;;17.20;99.90;;;;;;5031917;28;20030;-81
2023/08/27 01:38:30;;;;;;;4.38;2.00;;;17.10;99.90;;;;;;5031540;28;20025;-81
2023/08/27 01:40:56;;;;;;;1.90;1.80;;;17.10;99.90;;;;;;5028948;28;20434;-81
2023/08/27 01:43:22;;;;;;;6.05;1.98;;;17.10;99.90;;;;;;5031610;28;20025;-81
2023/08/27 01:45:47;;;;;;;2.40;1.90;;;17.10;99.90;;;;;;5031545;28;20037;-81
2023/08/27 01:48:13;;;;;;;2.20;1.98;;;17.20;99.90;;;;;;5028845;28;20033;-81
2023/08/27 01:50:39;;;;;;;4.10;1.88;;;17.00;99.90;;;;;;5047370;28;20021;-81
2023/08/27 01:53:04;;;;;;;3.83;1.90;;;17.10;99.90;;;;;;5032362;28;20036;-81
2023/08/27 01:55:30;;;;;;;4.97;2.10;;;17.00;99.90;;;;;;5032407;28;20037;-80
2023/08/27 01:57:56;;;;;;;2.28;2.08;;;17.10;99.90;;;;;;5029603;28;20033;-81
2023/08/27 02:00:22;;;;;;;3.55;2.40;;;17.10;99.90;;;;;;5030925;28;20017;-81
2023/08/27 02:02:48;;;;;;;2.53;1.98;;;17.10;99.90;;;;;;5031399;28;20028;-81
2023/08/27 02:05:14;;;;;;;6.85;2.28;;;17.20;99.90;;;;;;5031209;28;20488;-81
2023/08/27 02:07:40;;;;;;;2.40;2.20;;;17.20;99.90;;;;;;5029810;28;20104;-81
2023/08/27 02:10:07;;;;;;;2.55;2.35;;;17.20;99.90;;;;;;5031296;28;20025;-81
2023/08/27 02:12:33;;;;;;;2.80;2.60;;;17.20;99.90;;;;;;5030606;28;20049;-81
2023/08/27 02:14:59;;;;;;;4.00;2.80;;;17.10;99.90;;;;;;5031011;28;20395;-81
2023/08/27 02:17:25;;;;;;;3.90;2.80;;;17.20;99.90;;;;;;5031094;28;20021;-81
2023/08/27 02:19:51;;;;;;;4.45;2.85;;;17.20;99.90;;;;;;5030916;28;20072;-81
2023/08/27 02:22:16;;;;;;;3.42;2.55;;;17.20;99.90;;;;;;5032547;28;20465;-81
2023/08/27 02:24:42;;;;;;;3.55;3.20;;;17.20;99.90;;;;;;5031010;28;20447;-81
2023/08/27 02:27:08;;;;;;;5.88;3.50;;;17.20;99.90;;;;;;5030976;28;20105;-81
2023/08/27 02:29:35;;;;;;;4.25;3.85;;;17.10;99.90;;;;;;5031151;28;20022;-81
2023/08/27 02:32:02;;;;;;;7.10;4.70;;;17.20;99.90;;;;;;5030776;28;20037;-81
2023/08/27 02:34:28;;;;;;;6.00;4.70;;;17.20;99.90;;;;;;5030972;28;20030;-81
2023/08/27 02:36:54;;;;;;;5.45;5.03;;;17.20;99.90;;;;;;5030681;28;20030;-81
2023/08/27 02:39:19;;;;;;;5.45;4.75;;;17.10;99.90;;;;;;5029006;28;20030;-81
2023/08/27 02:41:45;;;;;;;5.22;4.72;;;17.20;99.90;;;;;;5029485;28;20056;-81
2023/08/27 02:44:11;;;;;;;10.32;4.65;;;17.20;99.90;;;;;;5031246;28;20082;-80
2023/08/27 02:46:37;;;;;;;5.07;4.53;;;17.20;99.90;;;;;;5033756;28;20017;-77
2023/08/27 02:49:02;;;;;;;4.78;4.38;;;17.20;99.90;;;;;;5032116;28;20024;-79
2023/08/27 02:51:28;;;;;;;5.43;4.65;;;17.20;99.90;;;;;;5032959;28;20132;-80
2023/08/27 02:53:55;;;;;;;6.57;5.40;;;17.20;99.90;;;;;;5034611;28;20545;-80
2023/08/27 02:56:21;;;;;;;5.57;5.07;;;17.30;99.90;;;;;;5034357;28;20018;-81
2023/08/27 02:58:50;;;;;;;6.53;5.82;;;17.20;99.90;;;;;;5034692;28;20045;-80
2023/08/27 03:01:22;;;;;;;6.57;6.03;;;17.20;99.90;;;;;;5036126;28;20083;-80
2023/08/27 03:03:49;;;;;;;7.82;7.03;;;17.30;99.90;;;;;;5040758;28;20029;-81
2023/08/27 03:06:16;;;;;;;8.02;7.20;;;17.30;99.90;;;;;;5047757;28;20017;-81
2023/08/27 03:08:43;;;;;;;8.65;6.88;;;17.30;99.90;;;;;;5046352;28;20480;-80
2023/08/27 03:11:09;;;;;;;7.75;6.93;;;17.30;99.90;;;;;;5044498;28;20044;-81
2023/08/27 03:13:35;;;;;;;10.50;6.28;;;17.30;99.90;;;;;;5043903;28;20460;-81
2023/08/27 03:16:01;;;;;;;7.07;6.38;;;17.30;99.90;;;;;;5044715;28;20032;-78
2023/08/27 03:18:29;;;;;;;7.45;4.90;;;17.30;99.90;;;;;;5044428;28;20026;-77
2023/08/27 03:20:55;;;;;;;5.45;4.90;;;17.30;99.90;;;;;;5041841;28;20029;-78
2023/08/27 03:23:21;;;;;;;5.53;5.03;;;17.10;99.90;;;;;;5035043;28;20025;-78
2023/08/27 03:25:50;;;;;;;9.18;4.47;;;17.10;99.90;;;;;;5037478;28;20025;-79
2023/08/27 03:28:16;;;;;;;7.35;5.18;;;17.10;99.90;;;;;;5039842;28;20021;-79
2023/08/27 03:30:42;;;;;;;6.93;4.97;;;17.10;99.90;;;;;;5039128;28;20372;-78
2023/08/27 03:33:08;;;;;;;6.50;4.38;;;17.10;99.90;;;;;;5036518;28;20074;-79
2023/08/27 03:35:33;;;;;;;8.38;4.10;;;17.10;99.90;;;;;;5036279;28;20491;-80
2023/08/27 03:37:59;;;;;;;7.10;4.18;;;17.20;99.90;;;;;;5038738;28;20454;-79
2023/08/27 03:40:25;;;;;;;7.40;3.80;;;17.20;99.90;;;;;;5036197;28;20467;-79
2023/08/27 03:42:51;;;;;;;6.50;4.03;;;17.20;99.90;;;;;;5033508;28;20030;-78
2023/08/27 03:45:16;;;;;;;5.47;4.20;;;17.20;99.90;;;;;;5035143;28;20025;-77
2023/08/27 03:47:42;;;;;;;6.30;4.32;;;17.30;99.90;;;;;;5028423;28;20127;-78
2023/08/27 03:50:08;;;;;;;4.70;3.70;;;17.30;99.90;;;;;;5033691;28;20029;-79
2023/08/27 03:52:34;;;;;;;5.05;3.72;;;17.30;99.90;;;;;;5033644;28;20117;-79
2023/08/27 03:55:02;;;;;;;7.60;4.13;;;17.30;99.90;;;;;;5033681;28;20120;-77
2023/08/27 03:57:28;;;;;;;6.22;3.80;;;17.30;99.90;;;;;;5048429;28;20026;-78
2023/08/27 03:59:54;;;;;;;9.48;3.97;;;17.20;99.90;;;;;;5033122;28;20029;-78
2023/08/27 04:02:19;;;;;;;10.45;4.47;;;17.30;99.90;;;;;;5031812;28;20029;-79
2023/08/27 04:04:45;;;;;;;8.98;4.00;;;17.20;99.90;;;;;;5032493;28;20018;-80
2023/08/27 04:07:12;;;;;;;5.68;4.10;;;17.10;99.90;;;;;;5034054;28;20037;-80
2023/08/27 04:09:38;;;;;;;8.55;4.53;;;17.00;99.90;;;;;;5034002;28;20024;-80
2023/08/27 04:12:04;;;;;;;8.13;4.00;;;16.90;99.90;;;;;;5033311;28;20034;-80
2023/08/27 04:14:29;;;;;;;7.43;3.72;;;16.80;99.90;;;;;;5032851;28;20028;-80
2023/08/27 04:16:55;;;;;;;7.07;4.47;;;16.70;99.90;;;;;;5034004;28;20033;-80
2023/08/27 04:19:21;;;;;;;4.57;3.97;;;16.60;99.90;;;;;;5033882;28;20026;-80
2023/08/27 04:21:46;;;;;;;4.53;3.95;;;16.70;99.90;;;;;;5033286;28;20119;-80
2023/08/27 04:24:12;;;;;;;12.18;4.05;;;16.80;99.90;;;;;;5031237;28;20024;-80
2023/08/27 04:26:38;;;;;;;4.47;3.75;;;16.90;99.90;;;;;;5031750;28;20068;-80
2023/08/27 04:29:04;;;;;;;7.40;3.95;;;17.00;99.90;;;;;;5031997;28;20026;-80
2023/08/27 04:31:30;;;;;;;10.38;3.78;;;17.00;99.90;;;;;;5030652;28;20029;-81
2023/08/27 04:33:55;;;;;;;6.82;3.42;;;17.10;99.90;;;;;;5032276;28;20079;-80
2023/08/27 04:36:21;;;;;;;4.30;2.88;;;17.10;99.90;;;;;;5032512;28;20092;-80
2023/08/27 04:38:47;;;;;;;6.13;3.45;;;17.10;99.90;;;;;;5032274;28;20037;-80
2023/08/27 04:41:13;;;;;;;6.25;3.22;;;17.10;99.90;;;;;;5030414;28;20120;-80
2023/08/27 04:43:39;;;;;;;3.85;3.38;;;17.10;99.90;;;;;;5032269;28;20041;-81
2023/08/27 04:46:05;;;;;;;4.93;3.55;;;17.10;99.90;;;;;;5031137;28;20043;-81
2023/08/27 04:48:31;;;;;;;6.07;3.42;;;17.10;99.90;;;;;;5032236;28;20025;-80
2023/08/27 04:50:58;;;;;;;4.22;3.40;;;17.20;99.90;;;;;;5028892;28;20025;-81
2023/08/27 04:53:26;;;;;;;7.53;3.38;;;17.20;99.90;;;;;;5031705;28;20014;-81
2023/08/27 04:55:52;;;;;;;5.47;3.40;;;17.20;99.90;;;;;;5032093;28;20018;-81
2023/08/27 04:58:18;;;;;;;3.45;2.75;;;17.20;99.90;;;;;;5032076;28;20480;-81
2023/08/27 05:00:44;;;;;;;6.00;3.40;;;17.20;99.90;;;;;;5031675;28;20029;-81
2023/08/27 05:03:10;;;;;;;5.57;2.97;;;17.20;99.90;;;;;;5032501;28;20030;-81
2023/08/27 05:05:36;;;;;;;3.45;3.20;;;17.10;99.90;;;;;;5031975;28;20026;-81
2023/08/27 05:08:02;;;;;;;7.30;2.97;;;17.10;99.90;;;;;;5032072;28;20021;-81
2023/08/27 05:10:28;;;;;;;7.47;3.67;;;17.10;99.90;;;;;;5031788;28;20105;-81
2023/08/27 05:12:54;;;;;;;5.72;3.40;;;17.10;99.90;;;;;;5031847;28;20025;-82
2023/08/27 05:15:20;;;;;;;7.03;3.60;;;17.10;99.90;;;;;;5031579;28;20095;-82
2023/08/27 05:17:50;;;;;;;4.70;3.50;;;17.10;99.90;;;;;;5031854;28;20022;-81
2023/08/27 05:20:17;;;;;;;6.38;4.13;;;17.10;99.90;;;;;;5030674;28;20025;-81
2023/08/27 05:22:43;;;;;;;5.13;3.85;;;17.10;99.90;;;;;;5032274;28;20021;-82
2023/08/27 05:25:09;;;;;;;9.75;4.30;;;17.00;99.90;;;;;;5030163;28;20076;-81
2023/08/27 05:27:35;;;;;;;3.78;3.47;;;17.10;99.90;;;;;;5031690;28;20028;-82
2023/08/27 05:30:01;;;;;;;8.95;4.90;;;17.10;99.90;;;;;;5031073;28;20033;-82
2023/08/27 05:32:27;;;;;;;5.82;3.75;;;17.10;99.90;;;;;;5031585;28;20491;-82
2023/08/27 05:34:54;;;;;;;10.90;3.85;;;17.10;99.90;;;;;;5031736;28;20079;-82
2023/08/27 05:37:19;;;;;;;5.80;4.10;;;17.10;99.90;;;;;;5030217;28;20030;-81
2023/08/27 05:39:45;;;;;;;9.25;4.43;;;17.10;99.90;;;;;;5026707;28;20099;-81
2023/08/27 05:42:11;;;;;;;5.47;4.05;;;17.00;99.90;;;;;;5011939;28;20041;-82
2023/08/27 05:44:37;;;;;;;6.85;4.70;;;17.00;99.90;;;;;;5013171;28;20026;-81
2023/08/27 05:47:03;;;;;;;7.93;4.90;;;17.00;99.90;;;;;;5011376;28;20392;-81
2023/08/27 05:49:28;;;;;;;7.22;4.88;;;17.10;99.90;;;;;;5011344;28;20030;-82
2023/08/27 05:51:54;;;;;;;7.70;4.32;;;17.10;99.90;;;;;;5026915;28;20021;-82
2023/08/27 05:54:20;;;;;;;8.23;4.78;;;17.10;99.90;;;;;;5047742;28;20063;-82
2023/08/27 05:56:46;;;;;;;10.00;5.25;;;17.00;99.90;;;;;;5047945;28;20021;-82
2023/08/27 05:59:15;;;;;;;8.43;5.25;;;16.90;99.90;;;;;;5031510;28;20139;-82
2023/08/27 06:01:42;;;;;;;7.05;5.55;;;16.90;99.90;;;;;;5027748;28;20026;-82
2023/08/27 06:04:08;;;;;;;6.15;5.47;;;16.90;99.90;;;;;;5029063;28;20052;-83
2023/08/27 06:06:35;;;;;;;9.93;5.78;;;16.90;99.90;;;;;;5031808;28;20105;-83
2023/08/27 06:09:01;;;;;;;6.60;5.60;;;16.90;99.90;;;;;;5030845;28;20392;-83
2023/08/27 06:11:27;;;;;;;9.00;5.78;;;16.80;99.90;;;;;;5032775;28;20023;-81
2023/08/27 06:13:53;;;;;;;6.95;5.32;;;16.70;99.90;;;;;;5035526;28;20021;-83
2023/08/27 06:16:18;;;;;;;6.03;5.40;;;16.80;99.90;;;;;;5031782;28;20025;-83
2023/08/27 06:18:44;;;;;;;7.55;5.53;;;16.80;99.90;;;;;;5031690;28;20112;-83
2023/08/27 06:21:10;;;;;;;6.18;5.43;;;16.80;99.90;;;;;;5047861;28;20472;-82
2023/08/27 06:23:36;;;;;;;5.28;4.78;;;16.90;99.90;;;;;;5029793;28;20033;-82
2023/08/27 06:26:05;;;;;;;5.80;5.20;;;16.90;99.90;;;;;;5032386;28;20063;-83
2023/08/27 06:28:31;;;;;;;8.77;5.40;;;16.90;99.90;;;;;;5051848;28;20484;-83
2023/08/27 06:30:59;;;;;;;7.05;5.30;;;16.90;99.90;;;;;;5035188;28;20342;-83
2023/08/27 06:33:24;;;;;;;6.45;5.80;;;16.90;99.90;;;;;;5034832;28;20072;-83
2023/08/27 06:35:50;;;;;;;8.52;5.35;;;16.80;99.90;;;;;;5031075;28;20076;-83
2023/08/27 06:38:17;;;;;;;5.78;4.68;;;16.90;99.90;;;;;;5020906;28;20030;-83
2023/08/27 06:40:43;;;;;;;5.82;4.90;;;16.90;99.90;;;;;;5034400;28;20026;-83
2023/08/27 06:43:09;;;;;;;9.05;5.40;;;16.80;99.90;;;;;;5035038;28;20038;-83
2023/08/27 06:45:35;;;;;;;6.75;5.47;;;16.90;99.90;;;;;;5034835;28;20076;-83
2023/08/27 06:48:01;;;;;;;5.82;5.18;;;16.90;99.90;;;;;;5036315;28;20030;-83
2023/08/27 06:50:27;;;;;;;8.40;5.40;;;17.10;99.90;;;;;;5040462;28;20025;-84
2023/08/27 06:52:53;;;;;;;6.60;4.57;;;17.10;99.90;;;;;;5040132;28;20476;-81
2023/08/27 06:55:18;;;;;;;6.75;4.88;;;17.00;99.90;;;;;;5035644;28;20364;-81
2023/08/27 06:57:44;;;;;;;8.20;5.32;;;16.80;99.90;;;;;;5018836;28;20030;-82
2023/08/27 07:00:11;;;;;;;8.50;5.80;;;17.00;99.90;;;;;;5016402;28;20037;-81
2023/08/27 07:02:37;;;;;;;8.15;4.88;;;17.00;99.90;;;;;;5037258;28;20541;-81
2023/08/27 07:05:08;;;;;;;8.57;5.00;;;17.10;99.90;;;;;;5037280;28;20017;-81
2023/08/27 07:07:36;;;;;;;8.38;4.95;;;17.10;99.90;;;;;;5037996;28;20030;-81
2023/08/27 07:10:05;;;;;;;7.63;5.43;;;17.20;99.90;;;;;;5042536;28;20471;-82
2023/08/27 07:12:35;;;;;;;6.47;5.13;;;17.20;99.90;;;;;;5043922;28;20128;-82
2023/08/27 07:15:02;;;;;;;8.70;4.63;;;17.20;99.90;;;;;;5039888;28;20498;-82
2023/08/27 07:17:29;;;;;;;7.72;4.38;;;17.20;99.90;;;;;;5039393;28;20029;-82
2023/08/27 07:19:56;;;;;;;9.15;4.93;;;17.30;99.90;;;;;;5041808;28;20022;-82
2023/08/27 07:22:21;;;;;;;8.75;4.43;;;17.30;99.90;;;;;;5042754;28;20029;-83
2023/08/27 07:24:48;;;;;;;10.00;4.93;;;17.30;99.90;;;;;;5041687;28;20018;-82
2023/08/27 07:27:14;;;;;;;6.90;4.18;;;17.30;99.90;;;;;;5042307;28;20047;-82
2023/08/27 07:29:40;;;;;;;10.25;5.13;;;17.40;99.90;;;;;;5028093;28;20072;-82
2023/08/27 07:32:06;;;;;;;6.85;4.70;;;17.40;99.90;;;;;;5021923;28;20030;-81
2023/08/27 07:34:32;;;;;;;14.43;6.03;;;17.40;99.90;;;;;;5016812;28;20037;-82
2023/08/27 07:36:57;;;;;;;8.50;4.75;;;17.30;99.90;;;;;;5014984;28;20026;-83
2023/08/27 07:39:23;;;;;;;11.10;4.30;;;17.40;99.90;;;;;;5031568;28;20037;-83
2023/08/27 07:41:50;;;;;;;12.57;4.88;;;17.50;99.90;;;;;;5030161;28;20026;-82
2023/08/27 07:44:16;;;;;;;6.88;4.60;;;17.50;99.90;;;;;;5031032;28;20062;-81
2023/08/27 07:46:43;;;;;;;6.65;4.05;;;17.60;99.90;;;;;;5016415;28;20014;-82
2023/08/27 07:49:10;;;;;;;7.60;4.20;;;17.70;99.90;;;;;;5029470;28;20018;-82
2023/08/27 07:51:36;;;;;;;11.90;4.45;;;17.70;99.90;;;;;;5029551;28;20028;-81
2023/08/27 07:54:02;;;;;;;7.78;4.47;;;17.80;99.90;;;;;;5027227;28;20095;-82
2023/08/27 07:56:29;;;;;;;10.18;4.63;;;17.80;99.90;;;;;;5026516;28;20030;-82
2023/08/27 07:58:55;;;;;;;7.47;3.65;;;17.90;99.90;;;;;;5017156;28;20014;-83
2023/08/27 08:01:21;;;;;;;7.78;4.05;;;17.90;99.90;;;;;;5008377;28;20022;-82
2023/08/27 08:03:47;;;;;;;8.07;3.67;;;18.00;99.90;;;;;;5020495;28;20123;-83
2023/08/27 08:06:13;;;;;;;6.38;3.47;;;18.10;99.90;;;;;;5026376;28;20155;-82
2023/08/27 08:08:39;;;;;;;9.35;4.40;;;18.20;99.90;;;;;;5033154;28;20036;-84
2023/08/27 08:11:05;;;;;;;9.38;4.10;;;18.30;99.90;;;;;;5021998;28;20472;-82
2023/08/27 08:13:36;;;;;;;8.25;4.20;;;18.30;99.90;;;;;;5013191;28;20037;-82
2023/08/27 08:16:02;;;;;;;8.65;4.50;;;18.40;99.90;;;;;;5012788;28;20565;-82
2023/08/27 08:18:28;;;;;;;9.13;3.72;;;18.30;99.90;;;;;;5015075;28;20055;-82
2023/08/27 08:20:56;;;;;;;9.32;3.95;;;18.40;99.90;;;;;;5013178;28;20710;-82
2023/08/27 08:23:22;;;;;;;5.55;3.55;;;18.30;99.90;;;;;;5012882;28;20117;-82
2023/08/27 08:25:49;;;;;;;8.15;4.10;;;18.40;99.90;;;;;;5021146;28;20045;-81
2023/08/27 08:28:15;;;;;;;6.63;3.78;;;18.60;99.90;;;;;;5028788;28;20017;-82
2023/08/27 08:30:47;;;;;;;7.35;3.75;;;18.50;99.90;;;;;;5021237;28;20076;-82
2023/08/27 08:33:14;;;;;;;7.47;3.20;;;18.50;99.90;;;;;;5013168;28;20423;-82
2023/08/27 08:35:41;;;;;;;9.15;3.25;;;18.50;99.90;;;;;;5023983;28;20036;-82
2023/08/27 08:38:07;;;;;;;6.38;2.72;;;18.60;99.90;;;;;;5027875;28;20022;-81
2023/08/27 08:40:51;;;;;;;7.15;2.88;;;18.60;99.90;;;;;;5025520;28;20121;-82
2023/08/27 08:43:47;;;;;;;6.20;2.92;;;18.70;99.90;;;;;;5013273;28;20057;-81
2023/08/27 08:46:18;;;;;;;6.85;2.70;;;18.80;99.90;;;;;;5013481;28;20030;-82
2023/08/27 08:48:49;;;;;;;8.05;2.53;;;18.90;99.90;;;;;;5020660;28;20084;-82
2023/08/27 08:51:22;;;;;;;5.72;2.25;;;19.00;99.90;;;;;;5025778;28;20029;-82
2023/08/27 08:53:51;;;;;;;8.20;2.47;;;19.20;99.90;;;;;;5037291;28;20108;-81
2023/08/27 08:56:28;;;;;;;4.07;2.00;;;19.30;99.90;;;;;;5037650;28;20073;-82
2023/08/27 08:58:58;;;;;;;7.72;1.98;;;19.40;99.90;;;;;;5036021;28;20028;-81
2023/08/27 09:01:25;;;;;;;4.20;2.28;;;19.40;99.90;;;;;;5034580;28;20141;-81
2023/08/27 09:03:52;;;;;;;5.40;1.85;;;19.40;99.90;;;;;;5035869;28;20034;-81
2023/08/27 09:06:23;;;;;;;5.90;1.85;;;19.50;99.90;;;;;;5037847;28;20017;-81
2023/08/27 09:08:50;;;;;;;3.45;1.23;;;19.50;99.90;;;;;;5026931;28;20026;-82
2023/08/27 09:11:17;;;;;;;5.07;2.08;;;19.50;99.90;;;;;;5034874;28;20022;-81
2023/08/27 09:13:43;;;;;;;5.50;2.10;;;19.60;99.90;;;;;;5026087;28;20026;-81
2023/08/27 09:16:09;;;;;;;2.50;1.80;;;19.60;99.90;;;;;;5015878;28;20052;-81
2023/08/27 09:18:36;;;;;;;4.45;1.80;;;19.40;99.90;;;;;;5017842;28;20396;-81
2023/08/27 09:21:02;;;;;;;6.10;2.28;;;19.40;99.90;;;;;;5017243;28;20088;-81
2023/08/27 09:23:33;;;;;;;6.63;2.25;;;19.40;99.90;;;;;;5033240;28;20076;-81
2023/08/27 09:26:02;;;;;;;6.05;2.08;;;19.60;99.90;;;;;;5032416;28;20018;-81
2023/08/27 09:28:28;;;;;;;4.20;2.03;;;19.50;99.90;;;;;;5017767;28;20068;-81
2023/08/27 09:30:54;;;;;;;5.20;1.70;;;19.30;99.90;;;;;;5027399;28;20054;-81
2023/08/27 09:33:40;;;;;;;4.32;1.70;;;19.50;99.90;;;;;;5033879;28;20514;-81
2023/08/27 09:36:07;;;;;;;6.80;1.58;;;19.60;99.90;;;;;;5031642;28;20492;-81
2023/08/27 09:38:39;;;;;;;4.90;1.75;;;19.60;99.90;;;;;;5022574;28;20026;-81
2023/08/27 09:41:15;;;;;;;6.53;2.47;;;19.80;99.90;;;;;;5014187;28;20025;-81
2023/08/27 09:43:55;;;;;;;8.68;1.92;;;20.00;99.90;;;;;;5014362;28;20319;-81
2023/08/27 09:46:21;;;;;;;6.40;1.60;;;20.30;99.90;;;;;;5012465;28;20488;-81
2023/08/27 09:49:06;;;;;;;2.95;1.27;;;20.50;99.90;;;;;;5013591;28;20064;-81
2023/08/27 09:51:39;;;;;;;4.55;1.70;;;20.60;99.90;;;;;;5012500;28;20365;-81
2023/08/27 09:54:19;;;;;;;4.38;1.70;;;20.80;99.90;;;;;;5012077;28;20446;-81
2023/08/27 09:56:50;;;;;;;4.53;1.33;;;20.90;99.90;;;;;;5025440;28;20482;-81
2023/08/27 09:59:17;;;;;;;6.03;1.52;;;21.10;99.90;;;;;;5031674;28;20391;-80
2023/08/27 10:01:48;;;;;;;4.95;1.38;;;21.20;99.90;;;;;;5034151;28;20029;-80
2023/08/27 10:04:13;;;;;;;5.35;1.83;;;21.40;99.90;;;;;;5035722;28;20030;-81
2023/08/27 10:06:39;;;;;;;4.43;1.70;;;21.50;99.90;;;;;;5035388;28;20079;-81
2023/08/27 10:09:06;;;;;;;2.95;1.27;;;21.60;99.90;;;;;;5021080;28;20156;-81
2023/08/27 10:11:33;;;;;;;9.77;1.63;;;21.70;99.90;;;;;;5027559;28;20018;-81
2023/08/27 10:13:59;;;;;;;4.20;1.55;;;21.90;99.90;;;;;;5037141;28;20364;-82
2023/08/27 10:16:28;;;;;;;2.05;1.13;;;21.90;99.90;;;;;;5026437;28;20025;-81
2023/08/27 10:18:55;;;;;;;4.95;1.27;;;22.00;99.90;;;;;;5015999;28;20021;-81
2023/08/27 10:21:21;;;;;;;3.10;1.33;;;22.00;99.90;;;;;;5015707;28;20570;-80
2023/08/27 10:23:48;;;;;;;2.58;1.38;;;22.10;99.90;;;;;;5015046;28;20040;-81
2023/08/27 10:26:14;;;;;;;2.92;1.58;;;22.10;99.90;;;;;;5024321;28;20022;-82
2023/08/27 10:28:41;;;;;;;2.67;1.10;;;22.20;99.90;;;;;;5051962;28;20168;-80
2023/08/27 10:31:07;;;;;;;3.20;0.90;;;22.30;99.90;;;;;;5053176;28;20468;-81
2023/08/27 10:33:34;;;;;;;5.22;1.30;;;22.40;99.90;;;;;;5053543;28;20021;-80
2023/08/27 10:36:36;;;;;;;3.75;1.27;;;22.50;99.90;;;;;;5054546;28;20033;-81
2023/08/27 10:39:04;;;;;;;3.95;1.38;;;22.60;99.90;;;;;;5040407;28;20038;-80
2023/08/27 10:41:34;;;;;;;2.72;1.30;;;22.60;99.90;;;;;;5016853;28;20578;-80
2023/08/27 10:44:01;;;;;;;2.92;1.67;;;22.60;99.90;;;;;;5017276;28;20025;-81
2023/08/27 10:46:26;;;;;;;8.60;1.50;;;22.50;99.90;;;;;;5015164;28;20531;-81
2023/08/27 10:48:54;;;;;;;2.65;0.90;;;22.00;99.90;;;;;;5020446;28;20013;-81
2023/08/27 10:51:26;;;;;;;2.35;1.05;;;21.80;99.90;;;;;;5018033;28;20025;-80
2023/08/27 10:53:56;;;;;;;1.73;1.10;;;21.60;99.90;;;;;;5014841;28;20018;-81
2023/08/27 10:56:38;;;;;;;4.72;1.08;;;21.50;99.90;;;;;;5021065;28;20373;-81
2023/08/27 10:59:09;;;;;;;4.45;1.00;;;21.50;99.90;;;;;;5015706;28;20499;-81
2023/08/27 11:01:59;;;;;;;3.25;1.23;;;21.50;99.90;;;;;;5028257;28;20017;-80
2023/08/27 11:04:44;;;;;;;2.33;1.00;;;21.50;99.90;;;;;;5024073;28;20040;-81
2023/08/27 11:07:15;;;;;;;4.88;1.23;;;21.40;99.90;;;;;;5014018;28;20022;-81
2023/08/27 11:09:57;;;;;;;4.55;1.23;;;21.30;99.90;;;;;;5033055;28;20394;-81
2023/08/27 11:12:28;;;;;;;3.65;1.30;;;21.40;99.90;;;;;;5034212;28;20395;-82
2023/08/27 11:14:55;;;;;;;2.13;0.93;;;21.30;99.90;;;;;;5036438;28;20029;-82
2023/08/27 11:17:26;;;;;;;5.05;1.23;;;21.20;99.90;;;;;;5032434;28;20036;-81
2023/08/27 11:19:53;;;;;;;4.28;1.40;;;21.20;99.90;;;;;;5033834;28;20036;-81
2023/08/27 11:22:21;;;;;;;8.40;1.45;;;21.10;99.90;;;;;;5050057;28;20590;-81
2023/08/27 11:24:52;;;;;;;5.13;1.40;;;21.00;99.90;;;;;;5047877;28;20061;-81
2023/08/27 11:27:20;;;;;;;3.15;1.50;;;21.30;99.90;;;;;;5017493;28;20113;-81
2023/08/27 11:29:48;;;;;;;4.53;1.10;;;21.70;99.90;;;;;;5023203;28;20439;-81
2023/08/27 11:32:15;;;;;;;2.30;1.20;;;22.10;99.90;;;;;;5023321;28;20402;-80
2023/08/27 11:34:43;;;;;;;2.78;1.33;;;22.30;99.90;;;;;;5033964;28;20033;-81
2023/08/27 11:37:10;;;;;;;2.55;0.93;;;22.50;99.90;;;;;;5033966;28;20036;-81
2023/08/27 11:39:37;;;;;;;2.53;1.10;;;22.60;99.90;;;;;;5016713;28;20069;-82
2023/08/27 11:42:14;;;;;;;3.42;1.20;;;22.30;99.90;;;;;;5026282;28;20026;-81
2023/08/27 11:44:54;;;;;;;6.00;1.40;;;22.40;99.90;;;;;;5034545;28;20033;-81
2023/08/27 11:47:21;;;;;;;3.30;1.50;;;22.10;99.90;;;;;;5034338;28;20025;-81
2023/08/27 11:49:50;;;;;;;3.28;1.30;;;21.90;99.90;;;;;;5033959;28;20110;-81
2023/08/27 11:52:16;;;;;;;4.40;1.73;;;21.80;99.90;;;;;;5033165;28;20017;-76
2023/08/27 11:54:43;;;;;;;7.90;2.15;;;21.60;99.90;;;;;;5045689;28;20032;-78
2023/08/27 11:57:09;;;;;;;3.97;2.00;;;21.40;99.90;;;;;;5041100;28;20026;-79
2023/08/27 11:59:38;;;;;;;4.28;1.63;;;21.30;99.90;;;;;;5023332;28;20022;-76
2023/08/27 12:02:06;;;;;;;3.35;1.20;;;21.00;99.90;;;;;;5031335;28;20072;-77
2023/08/27 12:04:32;;;;;;;2.53;0.90;;;20.90;99.90;;;;;;5019178;28;20038;-80
2023/08/27 12:07:03;;;;;;;3.42;1.27;;;20.60;99.90;;;;;;5013206;28;20072;-79
2023/08/27 12:09:33;;;;;;;1.58;0.85;;;20.40;99.90;;;;;;5027629;28;20021;-81
2023/08/27 12:12:04;;;;;;;3.53;1.10;;;20.30;99.90;;;;;;5050263;28;20092;-81
2023/08/27 12:14:30;;;;;;;0.65;0.45;;;20.20;99.90;;;;;;5033852;28;20030;-81
2023/08/27 12:17:07;;;;;;;1.85;0.55;;;20.20;99.90;;;;;;5033261;28;20476;-80
2023/08/27 12:19:35;;;;;;;0.70;0.68;;;20.30;99.90;;;;;;5034650;28;20479;-79
2023/08/27 12:22:01;;;;;;;2.05;0.63;;;20.30;99.90;;;;;;5033204;28;20033;-79
2023/08/27 12:24:36;;;;;;;0.70;0.47;;;20.40;99.90;;;;;;5023018;28;20025;-80
2023/08/27 12:27:03;;;;;;;1.55;0.85;;;20.30;99.90;;;;;;5015328;28;20022;-79
2023/08/27 12:29:32;;;;;;;1.05;0.77;;;20.70;99.90;;;;;;5026747;28;20021;-80
2023/08/27 12:32:09;;;;;;;1.38;0.75;;;20.90;99.90;;;;;;5032803;28;20037;-81
2023/08/27 12:34:44;;;;;;;2.58;0.80;;;20.80;99.90;;;;;;5037974;28;20032;-82
2023/08/27 12:37:12;;;;;;;1.38;0.52;;;20.50;99.90;;;;;;5046356;28;20025;-83
2023/08/27 12:39:39;;;;;;;1.02;0.68;;;20.30;99.90;;;;;;5044569;28;20037;-83
2023/08/27 12:42:06;;;;;;;2.35;0.70;;;20.30;99.90;;;;;;5045384;28;20040;-83
2023/08/27 12:44:33;;;;;;;3.85;0.60;;;20.30;99.90;;;;;;5039558;28;20025;-84
2023/08/27 12:46:59;;;;;;;0.65;0.40;;;20.10;99.90;;;;;;5025367;28;20033;-83
2023/08/27 12:49:25;;;;;;;0.82;0.50;;;20.10;99.90;;;;;;5019593;28;20465;-83